sensor_id;sensor_type;location;lat;lon;timestamp;temperature;humidity
19483;DHT22;9882;51.166;6.992;2024-01-30T00:00:01;8.70;99.90
19483;DHT22;9882;51.166;6.992;2024-01-30T00:02:31;8.70;99.90
19483;DHT22;9882;51.166;6.992;2024-01-30T00:04:59;8.70;99.90
19483;DHT22;9882;51.166;6.992;2024-01-30T00:07:28;8.70;99.90
19483;DHT22;9882;51.166;6.992;2024-01-30T00:09:56;8.60;99.90
19483;DHT22;9882;51.166;6.992;2024-01-30T00:12:26;8.70;99.90
19483;DHT22;9882;51.166;6.992;2024-01-30T00:14:55;8.60;99.90
19483;DHT22;9882;51.166;6.992;2024-01-30T00:17:23;8.60;99.90
19483;DHT22;9882;51.166;6.992;2024-01-30T00:19:53;8.60;99.90
19483;DHT22;9882;51.166;6.992;2024-01-30T00:22:22;8.70;99.90
19483;DHT22;9882;51.166;6.992;2024-01-30T00:24:51;8.60;99.90
19483;DHT22;9882;51.166;6.992;2024-01-30T00:27:19;8.60;99.90
19483;DHT22;9882;51.166;6.992;2024-01-30T00:29:49;8.60;99.90
19483;DHT22;9882;51.166;6.992;2024-01-30T00:32:17;8.60;99.90
19483;DHT22;9882;51.166;6.992;2024-01-30T00:34:47;8.60;99.90
19483;DHT22;9882;51.166;6.992;2024-01-30T00:37:15;8.60;99.90
19483;DHT22;9882;51.166;6.992;2024-01-30T00:39:44;8.50;99.90
19483;DHT22;9882;51.166;6.992;2024-01-30T00:42:12;8.50;99.90
19483;DHT22;9882;51.166;6.992;2024-01-30T00:44:41;8.50;99.90
19483;DHT22;9882;51.166;6.992;2024-01-30T00:47:11;8.50;99.90
19483;DHT22;9882;51.166;6.992;2024-01-30T00:49:39;8.50;99.90
19483;DHT22;9882;51.166;6.992;2024-01-30T00:52:07;8.50;99.90
19483;DHT22;9882;51.166;6.992;2024-01-30T00:54:36;8.40;99.90
19483;DHT22;9882;51.166;6.992;2024-01-30T00:57:05;8.50;99.90
19483;DHT22;9882;51.166;6.992;2024-01-30T00:59:33;8.40;99.90
19483;DHT22;9882;51.166;6.992;2024-01-30T01:02:02;8.40;99.90
19483;DHT22;9882;51.166;6.992;2024-01-30T01:04:32;8.40;99.90
19483;DHT22;9882;51.166;6.992;2024-01-30T01:07:01;8.40;99.90
19483;DHT22;9882;51.166;6.992;2024-01-30T01:09:30;8.40;99.90
19483;DHT22;9882;51.166;6.992;2024-01-30T01:11:58;8.40;99.90
19483;DHT22;9882;51.166;6.992;2024-01-30T01:14:27;8.50;99.90
19483;DHT22;9882;51.166;6.992;2024-01-30T01:16:55;8.40;99.90
19483;DHT22;9882;51.166;6.992;2024-01-30T01:19:24;8.40;99.90
19483;DHT22;9882;51.166;6.992;2024-01-30T01:21:54;8.40;99.90
19483;DHT22;9882;51.166;6.992;2024-01-30T01:24:22;8.30;99.90
19483;DHT22;9882;51.166;6.992;2024-01-30T01:26:51;8.40;99.90
19483;DHT22;9882;51.166;6.992;2024-01-30T01:29:19;8.30;99.90
19483;DHT22;9882;51.166;6.992;2024-01-30T01:31:55;8.30;99.90
19483;DHT22;9882;51.166;6.992;2024-01-30T01:34:24;8.30;99.90
19483;DHT22;9882;51.166;6.992;2024-01-30T01:36:55;8.30;99.90
19483;DHT22;9882;51.166;6.992;2024-01-30T01:39:24;8.30;99.90
19483;DHT22;9882;51.166;6.992;2024-01-30T01:41:52;8.30;99.90
19483;DHT22;9882;51.166;6.992;2024-01-30T01:44:21;8.30;99.90
19483;DHT22;9882;51.166;6.992;2024-01-30T01:46:50;8.30;99.90
19483;DHT22;9882;51.166;6.992;2024-01-30T01:49:19;8.20;99.90
19483;DHT22;9882;51.166;6.992;2024-01-30T01:51:48;8.20;99.90
19483;DHT22;9882;51.166;6.992;2024-01-30T01:54:19;8.20;99.90
19483;DHT22;9882;51.166;6.992;2024-01-30T01:56:48;8.20;99.90
19483;DHT22;9882;51.166;6.992;2024-01-30T01:59:17;8.20;99.90
19483;DHT22;9882;51.166;6.992;2024-01-30T02:01:46;8.20;99.90
19483;DHT22;9882;51.166;6.992;2024-01-30T02:04:16;8.20;99.90
19483;DHT22;9882;51.166;6.992;2024-01-30T02:06:45;8.20;99.90
19483;DHT22;9882;51.166;6.992;2024-01-30T02:09:13;8.20;99.90
19483;DHT22;9882;51.166;6.992;2024-01-30T02:11:43;8.20;99.90
19483;DHT22;9882;51.166;6.992;2024-01-30T02:14:11;8.10;99.90
19483;DHT22;9882;51.166;6.992;2024-01-30T02:16:40;8.10;99.90
19483;DHT22;9882;51.166;6.992;2024-01-30T02:19:08;8.10;99.90
19483;DHT22;9882;51.166;6.992;2024-01-30T02:21:39;8.10;99.90
19483;DHT22;9882;51.166;6.992;2024-01-30T02:24:07;8.10;99.90
19483;DHT22;9882;51.166;6.992;2024-01-30T02:26:36;8.10;99.90
19483;DHT22;9882;51.166;6.992;2024-01-30T02:29:04;8.10;99.90
19483;DHT22;9882;51.166;6.992;2024-01-30T02:31:33;8.10;99.90
19483;DHT22;9882;51.166;6.992;2024-01-30T02:34:01;8.10;99.90
19483;DHT22;9882;51.166;6.992;2024-01-30T02:36:30;8.10;99.90
19483;DHT22;9882;51.166;6.992;2024-01-30T02:39:00;8.10;99.90
19483;DHT22;9882;51.166;6.992;2024-01-30T02:41:28;8.20;99.90
19483;DHT22;9882;51.166;6.992;2024-01-30T02:43:57;8.20;99.90
19483;DHT22;9882;51.166;6.992;2024-01-30T02:46:25;8.10;99.90
19483;DHT22;9882;51.166;6.992;2024-01-30T02:48:54;8.20;99.90
19483;DHT22;9882;51.166;6.992;2024-01-30T02:51:22;8.20;99.90
19483;DHT22;9882;51.166;6.992;2024-01-30T02:53:51;8.20;99.90
19483;DHT22;9882;51.166;6.992;2024-01-30T02:56:21;8.10;99.90
19483;DHT22;9882;51.166;6.992;2024-01-30T02:58:49;8.10;99.90
19483;DHT22;9882;51.166;6.992;2024-01-30T03:01:18;8.10;99.90
19483;DHT22;9882;51.166;6.992;2024-01-30T03:03:46;8.10;99.90
19483;DHT22;9882;51.166;6.992;2024-01-30T03:06:15;8.10;99.90
19483;DHT22;9882;51.166;6.992;2024-01-30T03:08:44;8.20;99.90
19483;DHT22;9882;51.166;6.992;2024-01-30T03:11:13;8.20;99.90
19483;DHT22;9882;51.166;6.992;2024-01-30T03:13:43;8.20;99.90
19483;DHT22;9882;51.166;6.992;2024-01-30T03:16:11;8.20;99.90
19483;DHT22;9882;51.166;6.992;2024-01-30T03:18:39;8.10;99.90
19483;DHT22;9882;51.166;6.992;2024-01-30T03:21:08;8.20;99.90
19483;DHT22;9882;51.166;6.992;2024-01-30T03:23:36;8.20;99.90
19483;DHT22;9882;51.166;6.992;2024-01-30T03:26:05;8.10;99.90
19483;DHT22;9882;51.166;6.992;2024-01-30T03:28:34;8.20;99.90
19483;DHT22;9882;51.166;6.992;2024-01-30T03:31:04;8.20;99.90
19483;DHT22;9882;51.166;6.992;2024-01-30T03:33:32;8.20;99.90
19483;DHT22;9882;51.166;6.992;2024-01-30T03:36:03;8.20;99.90
19483;DHT22;9882;51.166;6.992;2024-01-30T03:38:31;8.20;99.90
19483;DHT22;9882;51.166;6.992;2024-01-30T03:41:00;8.20;99.90
19483;DHT22;9882;51.166;6.992;2024-01-30T03:43:29;8.20;99.90
19483;DHT22;9882;51.166;6.992;2024-01-30T03:45:57;8.20;99.90
19483;DHT22;9882;51.166;6.992;2024-01-30T03:48:28;8.20;99.90
19483;DHT22;9882;51.166;6.992;2024-01-30T03:50:56;8.10;99.90
19483;DHT22;9882;51.166;6.992;2024-01-30T03:53:25;8.10;99.90
19483;DHT22;9882;51.166;6.992;2024-01-30T03:55:53;8.10;99.90
19483;DHT22;9882;51.166;6.992;2024-01-30T03:58:22;8.10;99.90
19483;DHT22;9882;51.166;6.992;2024-01-30T04:00:50;8.10;99.90
19483;DHT22;9882;51.166;6.992;2024-01-30T04:03:19;8.20;99.90
19483;DHT22;9882;51.166;6.992;2024-01-30T04:05:49;8.10;99.90
19483;DHT22;9882;51.166;6.992;2024-01-30T04:08:17;8.20;99.90
19483;DHT22;9882;51.166;6.992;2024-01-30T04:10:46;8.30;99.90
19483;DHT22;9882;51.166;6.992;2024-01-30T04:13:14;8.20;99.90
19483;DHT22;9882;51.166;6.992;2024-01-30T04:15:43;8.20;99.90
19483;DHT22;9882;51.166;6.992;2024-01-30T04:18:12;8.20;99.90
19483;DHT22;9882;51.166;6.992;2024-01-30T04:20:40;8.20;99.90
19483;DHT22;9882;51.166;6.992;2024-01-30T04:23:10;8.10;99.90
19483;DHT22;9882;51.166;6.992;2024-01-30T04:25:38;8.10;99.90
19483;DHT22;9882;51.166;6.992;2024-01-30T04:28:07;8.20;99.90
19483;DHT22;9882;51.166;6.992;2024-01-30T04:30:35;8.20;99.90
19483;DHT22;9882;51.166;6.992;2024-01-30T04:33:04;8.20;99.90
19483;DHT22;9882;51.166;6.992;2024-01-30T04:35:33;8.20;99.90
19483;DHT22;9882;51.166;6.992;2024-01-30T04:38:01;8.20;99.90
19483;DHT22;9882;51.166;6.992;2024-01-30T04:40:31;8.20;99.90
19483;DHT22;9882;51.166;6.992;2024-01-30T04:42:59;8.10;99.90
19483;DHT22;9882;51.166;6.992;2024-01-30T04:45:28;8.10;99.90
19483;DHT22;9882;51.166;6.992;2024-01-30T04:47:56;8.10;99.90
19483;DHT22;9882;51.166;6.992;2024-01-30T04:50:25;8.00;99.90
19483;DHT22;9882;51.166;6.992;2024-01-30T04:52:54;8.00;99.90
19483;DHT22;9882;51.166;6.992;2024-01-30T04:55:23;8.10;99.90
19483;DHT22;9882;51.166;6.992;2024-01-30T04:57:52;8.00;99.90
19483;DHT22;9882;51.166;6.992;2024-01-30T05:00:21;8.00;99.90
19483;DHT22;9882;51.166;6.992;2024-01-30T05:02:49;8.00;99.90
19483;DHT22;9882;51.166;6.992;2024-01-30T05:05:18;8.00;99.90
19483;DHT22;9882;51.166;6.992;2024-01-30T05:07:46;8.00;99.90
19483;DHT22;9882;51.166;6.992;2024-01-30T05:10:15;8.00;99.90
19483;DHT22;9882;51.166;6.992;2024-01-30T05:12:43;8.00;99.90
19483;DHT22;9882;51.166;6.992;2024-01-30T05:15:14;7.90;99.90
19483;DHT22;9882;51.166;6.992;2024-01-30T05:17:43;8.00;99.90
19483;DHT22;9882;51.166;6.992;2024-01-30T05:20:12;8.00;99.90
19483;DHT22;9882;51.166;6.992;2024-01-30T05:22:40;7.90;99.90
19483;DHT22;9882;51.166;6.992;2024-01-30T05:25:12;8.00;99.90
19483;DHT22;9882;51.166;6.992;2024-01-30T05:27:41;8.00;99.90
19483;DHT22;9882;51.166;6.992;2024-01-30T05:30:10;8.00;99.90
19483;DHT22;9882;51.166;6.992;2024-01-30T05:32:40;7.90;99.90
19483;DHT22;9882;51.166;6.992;2024-01-30T05:35:09;8.00;99.90
19483;DHT22;9882;51.166;6.992;2024-01-30T05:37:37;7.90;99.90
19483;DHT22;9882;51.166;6.992;2024-01-30T05:40:07;8.00;99.90
19483;DHT22;9882;51.166;6.992;2024-01-30T05:42:36;8.00;99.90
19483;DHT22;9882;51.166;6.992;2024-01-30T05:45:05;8.00;99.90
19483;DHT22;9882;51.166;6.992;2024-01-30T05:47:34;7.90;99.90
19483;DHT22;9882;51.166;6.992;2024-01-30T05:50:04;7.90;99.90
19483;DHT22;9882;51.166;6.992;2024-01-30T05:52:33;7.90;99.90
19483;DHT22;9882;51.166;6.992;2024-01-30T05:55:02;7.90;99.90
19483;DHT22;9882;51.166;6.992;2024-01-30T05:57:30;7.90;99.90
19483;DHT22;9882;51.166;6.992;2024-01-30T05:59:59;7.90;99.90
19483;DHT22;9882;51.166;6.992;2024-01-30T06:02:27;7.90;99.90
19483;DHT22;9882;51.166;6.992;2024-01-30T06:04:56;7.90;99.90
19483;DHT22;9882;51.166;6.992;2024-01-30T06:07:26;7.80;99.90
19483;DHT22;9882;51.166;6.992;2024-01-30T06:09:54;7.90;99.90
19483;DHT22;9882;51.166;6.992;2024-01-30T06:12:23;7.90;99.90
19483;DHT22;9882;51.166;6.992;2024-01-30T06:14:51;7.90;99.90
19483;DHT22;9882;51.166;6.992;2024-01-30T06:17:21;7.80;99.90
19483;DHT22;9882;51.166;6.992;2024-01-30T06:19:50;7.90;99.90
19483;DHT22;9882;51.166;6.992;2024-01-30T06:22:18;7.90;99.90
19483;DHT22;9882;51.166;6.992;2024-01-30T06:24:48;7.90;99.90
19483;DHT22;9882;51.166;6.992;2024-01-30T06:27:18;7.90;99.90
19483;DHT22;9882;51.166;6.992;2024-01-30T06:29:46;7.90;99.90
19483;DHT22;9882;51.166;6.992;2024-01-30T06:32:14;7.90;99.90
19483;DHT22;9882;51.166;6.992;2024-01-30T06:34:43;7.80;99.90
19483;DHT22;9882;51.166;6.992;2024-01-30T06:37:12;7.90;99.90
19483;DHT22;9882;51.166;6.992;2024-01-30T06:39:40;7.90;99.90
19483;DHT22;9882;51.166;6.992;2024-01-30T06:42:10;7.90;99.90
19483;DHT22;9882;51.166;6.992;2024-01-30T06:44:44;7.90;99.90
19483;DHT22;9882;51.166;6.992;2024-01-30T06:47:17;8.00;99.90
19483;DHT22;9882;51.166;6.992;2024-01-30T06:49:46;8.00;99.90
19483;DHT22;9882;51.166;6.992;2024-01-30T06:52:15;7.90;99.90
19483;DHT22;9882;51.166;6.992;2024-01-30T06:54:43;8.00;99.90
19483;DHT22;9882;51.166;6.992;2024-01-30T06:57:13;8.00;99.90
19483;DHT22;9882;51.166;6.992;2024-01-30T06:59:42;7.90;99.90
19483;DHT22;9882;51.166;6.992;2024-01-30T07:02:11;8.00;99.90
19483;DHT22;9882;51.166;6.992;2024-01-30T07:04:40;8.00;99.90
19483;DHT22;9882;51.166;6.992;2024-01-30T07:07:10;8.00;99.90
19483;DHT22;9882;51.166;6.992;2024-01-30T07:09:40;8.00;99.90
19483;DHT22;9882;51.166;6.992;2024-01-30T07:12:09;8.00;99.90
19483;DHT22;9882;51.166;6.992;2024-01-30T07:14:38;8.00;99.90
19483;DHT22;9882;51.166;6.992;2024-01-30T07:17:07;8.00;99.90
19483;DHT22;9882;51.166;6.992;2024-01-30T07:19:35;8.00;99.90
19483;DHT22;9882;51.166;6.992;2024-01-30T07:22:04;8.00;99.90
19483;DHT22;9882;51.166;6.992;2024-01-30T07:24:33;8.00;99.90
19483;DHT22;9882;51.166;6.992;2024-01-30T07:27:02;8.00;99.90
19483;DHT22;9882;51.166;6.992;2024-01-30T07:29:30;8.00;99.90
19483;DHT22;9882;51.166;6.992;2024-01-30T07:32:00;8.00;99.90
19483;DHT22;9882;51.166;6.992;2024-01-30T07:34:29;8.10;99.90
19483;DHT22;9882;51.166;6.992;2024-01-30T07:36:58;8.00;99.90
19483;DHT22;9882;51.166;6.992;2024-01-30T07:39:27;8.10;99.90
19483;DHT22;9882;51.166;6.992;2024-01-30T07:41:56;8.00;99.90
19483;DHT22;9882;51.166;6.992;2024-01-30T07:44:24;8.00;99.90
19483;DHT22;9882;51.166;6.992;2024-01-30T07:46:53;8.00;99.90
19483;DHT22;9882;51.166;6.992;2024-01-30T07:49:23;8.00;99.90
19483;DHT22;9882;51.166;6.992;2024-01-30T07:51:52;8.10;99.90
19483;DHT22;9882;51.166;6.992;2024-01-30T07:54:21;8.20;99.90
19483;DHT22;9882;51.166;6.992;2024-01-30T08:03:55;8.00;99.90
19483;DHT22;9882;51.166;6.992;2024-01-30T08:06:24;8.00;99.90
19483;DHT22;9882;51.166;6.992;2024-01-30T08:08:53;7.90;99.90
19483;DHT22;9882;51.166;6.992;2024-01-30T08:11:21;8.00;99.90
19483;DHT22;9882;51.166;6.992;2024-01-30T08:13:53;7.90;99.90
19483;DHT22;9882;51.166;6.992;2024-01-30T08:16:21;8.00;99.90
19483;DHT22;9882;51.166;6.992;2024-01-30T08:18:50;8.00;99.90
19483;DHT22;9882;51.166;6.992;2024-01-30T08:21:20;8.20;99.90
19483;DHT22;9882;51.166;6.992;2024-01-30T08:23:50;8.10;99.90
19483;DHT22;9882;51.166;6.992;2024-01-30T08:26:18;8.20;99.90
19483;DHT22;9882;51.166;6.992;2024-01-30T08:28:47;8.30;99.90
19483;DHT22;9882;51.166;6.992;2024-01-30T08:31:15;8.20;99.90
19483;DHT22;9882;51.166;6.992;2024-01-30T08:33:44;8.20;99.90
19483;DHT22;9882;51.166;6.992;2024-01-30T08:36:13;8.00;99.90
19483;DHT22;9882;51.166;6.992;2024-01-30T08:38:41;8.20;99.90
19483;DHT22;9882;51.166;6.992;2024-01-30T08:41:11;8.20;99.90
19483;DHT22;9882;51.166;6.992;2024-01-30T08:43:39;8.20;99.90
19483;DHT22;9882;51.166;6.992;2024-01-30T08:46:08;8.30;99.90
19483;DHT22;9882;51.166;6.992;2024-01-30T08:48:37;8.30;99.90
19483;DHT22;9882;51.166;6.992;2024-01-30T08:51:05;8.20;99.90
19483;DHT22;9882;51.166;6.992;2024-01-30T08:53:35;8.30;99.90
19483;DHT22;9882;51.166;6.992;2024-01-30T08:56:05;8.30;99.90
19483;DHT22;9882;51.166;6.992;2024-01-30T08:58:35;8.30;99.90
19483;DHT22;9882;51.166;6.992;2024-01-30T09:01:04;8.30;99.90
19483;DHT22;9882;51.166;6.992;2024-01-30T09:03:33;8.60;99.90
19483;DHT22;9882;51.166;6.992;2024-01-30T09:06:01;8.50;99.90
19483;DHT22;9882;51.166;6.992;2024-01-30T09:08:30;8.60;99.90
19483;DHT22;9882;51.166;6.992;2024-01-30T09:10:58;8.70;99.90
19483;DHT22;9882;51.166;6.992;2024-01-30T09:13:27;8.70;99.90
19483;DHT22;9882;51.166;6.992;2024-01-30T09:15:57;8.60;99.90
19483;DHT22;9882;51.166;6.992;2024-01-30T09:18:25;8.50;99.90
19483;DHT22;9882;51.166;6.992;2024-01-30T09:20:54;8.50;99.90
19483;DHT22;9882;51.166;6.992;2024-01-30T09:23:22;8.70;99.90
19483;DHT22;9882;51.166;6.992;2024-01-30T09:25:51;8.80;99.90
19483;DHT22;9882;51.166;6.992;2024-01-30T09:28:19;8.90;99.90
19483;DHT22;9882;51.166;6.992;2024-01-30T09:30:48;8.90;99.90
19483;DHT22;9882;51.166;6.992;2024-01-30T09:33:18;8.80;99.90
19483;DHT22;9882;51.166;6.992;2024-01-30T09:35:47;8.60;99.90
19483;DHT22;9882;51.166;6.992;2024-01-30T09:38:15;8.60;99.90
19483;DHT22;9882;51.166;6.992;2024-01-30T09:40:45;8.90;99.90
19483;DHT22;9882;51.166;6.992;2024-01-30T09:43:22;8.80;99.90
19483;DHT22;9882;51.166;6.992;2024-01-30T09:45:53;8.80;99.90
19483;DHT22;9882;51.166;6.992;2024-01-30T09:48:24;8.90;99.90
19483;DHT22;9882;51.166;6.992;2024-01-30T09:50:54;9.00;99.90
19483;DHT22;9882;51.166;6.992;2024-01-30T09:53:22;9.00;99.90
19483;DHT22;9882;51.166;6.992;2024-01-30T09:55:51;9.00;99.90
19483;DHT22;9882;51.166;6.992;2024-01-30T09:58:19;8.90;99.90
19483;DHT22;9882;51.166;6.992;2024-01-30T10:00:49;9.00;99.90
19483;DHT22;9882;51.166;6.992;2024-01-30T10:03:17;9.00;99.90
19483;DHT22;9882;51.166;6.992;2024-01-30T10:05:51;9.10;99.90
19483;DHT22;9882;51.166;6.992;2024-01-30T10:08:20;9.20;99.90
19483;DHT22;9882;51.166;6.992;2024-01-30T10:10:49;9.40;99.90
19483;DHT22;9882;51.166;6.992;2024-01-30T10:13:18;9.50;99.90
19483;DHT22;9882;51.166;6.992;2024-01-30T10:15:47;9.40;99.90
19483;DHT22;9882;51.166;6.992;2024-01-30T10:18:16;9.30;99.90
19483;DHT22;9882;51.166;6.992;2024-01-30T10:20:45;9.40;99.90
19483;DHT22;9882;51.166;6.992;2024-01-30T10:23:15;9.50;99.90
19483;DHT22;9882;51.166;6.992;2024-01-30T10:25:44;9.50;99.90
19483;DHT22;9882;51.166;6.992;2024-01-30T10:28:13;9.60;99.90
19483;DHT22;9882;51.166;6.992;2024-01-30T10:30:41;9.60;99.90
19483;DHT22;9882;51.166;6.992;2024-01-30T10:33:10;9.60;99.90
19483;DHT22;9882;51.166;6.992;2024-01-30T10:35:39;9.60;99.90
19483;DHT22;9882;51.166;6.992;2024-01-30T10:38:08;9.80;99.90
19483;DHT22;9882;51.166;6.992;2024-01-30T10:40:43;9.70;99.90
19483;DHT22;9882;51.166;6.992;2024-01-30T10:43:15;10.00;99.90
19483;DHT22;9882;51.166;6.992;2024-01-30T10:45:49;9.80;99.90
19483;DHT22;9882;51.166;6.992;2024-01-30T10:48:26;10.00;99.90
19483;DHT22;9882;51.166;6.992;2024-01-30T10:50:59;10.20;99.90
19483;DHT22;9882;51.166;6.992;2024-01-30T10:53:29;10.20;99.90
19483;DHT22;9882;51.166;6.992;2024-01-30T10:56:01;10.40;99.90
19483;DHT22;9882;51.166;6.992;2024-01-30T10:58:31;10.50;99.90
19483;DHT22;9882;51.166;6.992;2024-01-30T11:00:59;10.40;99.90
19483;DHT22;9882;51.166;6.992;2024-01-30T11:03:29;10.30;99.90
19483;DHT22;9882;51.166;6.992;2024-01-30T11:06:00;10.50;99.90
19483;DHT22;9882;51.166;6.992;2024-01-30T11:08:31;10.50;99.90
19483;DHT22;9882;51.166;6.992;2024-01-30T11:11:01;10.70;99.90
19483;DHT22;9882;51.166;6.992;2024-01-30T11:13:30;10.80;99.90
19483;DHT22;9882;51.166;6.992;2024-01-30T11:16:00;10.80;99.90
19483;DHT22;9882;51.166;6.992;2024-01-30T11:18:30;11.00;99.90
19483;DHT22;9882;51.166;6.992;2024-01-30T11:20:59;10.90;99.90
19483;DHT22;9882;51.166;6.992;2024-01-30T11:23:29;11.10;99.90
19483;DHT22;9882;51.166;6.992;2024-01-30T11:25:58;11.10;99.90
19483;DHT22;9882;51.166;6.992;2024-01-30T11:28:32;11.10;99.90
19483;DHT22;9882;51.166;6.992;2024-01-30T11:31:05;11.20;99.90
19483;DHT22;9882;51.166;6.992;2024-01-30T11:33:35;11.20;99.90
19483;DHT22;9882;51.166;6.992;2024-01-30T11:36:04;11.10;99.90
19483;DHT22;9882;51.166;6.992;2024-01-30T11:38:34;11.20;99.90
19483;DHT22;9882;51.166;6.992;2024-01-30T11:41:03;11.20;99.90
19483;DHT22;9882;51.166;6.992;2024-01-30T11:43:33;11.30;99.90
19483;DHT22;9882;51.166;6.992;2024-01-30T11:46:02;11.30;99.90
19483;DHT22;9882;51.166;6.992;2024-01-30T11:48:31;11.40;99.90
19483;DHT22;9882;51.166;6.992;2024-01-30T11:50:59;11.50;99.90
19483;DHT22;9882;51.166;6.992;2024-01-30T11:53:28;11.50;99.90
19483;DHT22;9882;51.166;6.992;2024-01-30T11:55:56;11.50;99.90
19483;DHT22;9882;51.166;6.992;2024-01-30T11:58:25;11.60;99.90
19483;DHT22;9882;51.166;6.992;2024-01-30T12:00:56;11.60;99.90
19483;DHT22;9882;51.166;6.992;2024-01-30T12:03:24;11.50;99.90
19483;DHT22;9882;51.166;6.992;2024-01-30T12:05:56;11.40;99.90
19483;DHT22;9882;51.166;6.992;2024-01-30T12:08:25;11.50;99.90
19483;DHT22;9882;51.166;6.992;2024-01-30T12:10:58;11.60;99.90
19483;DHT22;9882;51.166;6.992;2024-01-30T12:13:29;11.60;99.90
19483;DHT22;9882;51.166;6.992;2024-01-30T12:16:00;11.50;99.90
19483;DHT22;9882;51.166;6.992;2024-01-30T12:18:29;11.50;99.90
19483;DHT22;9882;51.166;6.992;2024-01-30T12:20:58;11.50;99.90
19483;DHT22;9882;51.166;6.992;2024-01-30T12:23:28;11.60;99.90
19483;DHT22;9882;51.166;6.992;2024-01-30T12:25:57;11.60;99.90
19483;DHT22;9882;51.166;6.992;2024-01-30T12:28:26;11.50;99.90
19483;DHT22;9882;51.166;6.992;2024-01-30T12:30:55;11.40;99.90
19483;DHT22;9882;51.166;6.992;2024-01-30T12:33:27;11.50;99.90
19483;DHT22;9882;51.166;6.992;2024-01-30T12:35:56;11.50;99.90
19483;DHT22;9882;51.166;6.992;2024-01-30T12:38:25;11.50;99.90
19483;DHT22;9882;51.166;6.992;2024-01-30T12:40:54;11.40;99.90
19483;DHT22;9882;51.166;6.992;2024-01-30T12:43:24;11.40;99.90
19483;DHT22;9882;51.166;6.992;2024-01-30T12:45:53;11.40;99.90
19483;DHT22;9882;51.166;6.992;2024-01-30T12:48:22;11.40;99.90
19483;DHT22;9882;51.166;6.992;2024-01-30T12:50:51;11.50;99.90
19483;DHT22;9882;51.166;6.992;2024-01-30T12:53:20;11.40;99.90
19483;DHT22;9882;51.166;6.992;2024-01-30T12:55:48;11.50;99.90
19483;DHT22;9882;51.166;6.992;2024-01-30T12:58:17;11.60;99.90
19483;DHT22;9882;51.166;6.992;2024-01-30T13:00:46;11.60;99.90
19483;DHT22;9882;51.166;6.992;2024-01-30T13:03:14;11.50;99.90
19483;DHT22;9882;51.166;6.992;2024-01-30T13:05:43;11.50;99.90
19483;DHT22;9882;51.166;6.992;2024-01-30T13:08:13;11.40;99.90
19483;DHT22;9882;51.166;6.992;2024-01-30T13:10:41;11.40;99.90
19483;DHT22;9882;51.166;6.992;2024-01-30T13:13:10;11.40;99.90
19483;DHT22;9882;51.166;6.992;2024-01-30T13:15:41;11.40;99.90
19483;DHT22;9882;51.166;6.992;2024-01-30T13:18:10;11.30;99.90
19483;DHT22;9882;51.166;6.992;2024-01-30T13:20:38;11.40;99.90
19483;DHT22;9882;51.166;6.992;2024-01-30T13:23:07;11.50;99.90
19483;DHT22;9882;51.166;6.992;2024-01-30T13:25:37;11.50;99.90
19483;DHT22;9882;51.166;6.992;2024-01-30T13:28:05;11.50;99.90
19483;DHT22;9882;51.166;6.992;2024-01-30T13:30:34;11.60;99.90
19483;DHT22;9882;51.166;6.992;2024-01-30T13:33:02;11.60;99.90
19483;DHT22;9882;51.166;6.992;2024-01-30T13:35:31;11.50;99.90
19483;DHT22;9882;51.166;6.992;2024-01-30T13:37:59;11.50;99.90
19483;DHT22;9882;51.166;6.992;2024-01-30T13:40:28;11.60;99.90
19483;DHT22;9882;51.166;6.992;2024-01-30T13:42:58;11.60;99.90
19483;DHT22;9882;51.166;6.992;2024-01-30T13:45:27;11.50;99.90
19483;DHT22;9882;51.166;6.992;2024-01-30T13:47:56;11.50;99.90
19483;DHT22;9882;51.166;6.992;2024-01-30T13:50:26;11.50;99.90
19483;DHT22;9882;51.166;6.992;2024-01-30T13:52:54;11.50;99.90
19483;DHT22;9882;51.166;6.992;2024-01-30T13:55:23;11.50;99.90
19483;DHT22;9882;51.166;6.992;2024-01-30T13:57:52;11.50;99.90
19483;DHT22;9882;51.166;6.992;2024-01-30T14:00:22;11.50;99.90
19483;DHT22;9882;51.166;6.992;2024-01-30T14:02:52;11.60;99.90
19483;DHT22;9882;51.166;6.992;2024-01-30T14:05:22;11.60;99.90
19483;DHT22;9882;51.166;6.992;2024-01-30T14:07:51;11.70;99.90
19483;DHT22;9882;51.166;6.992;2024-01-30T14:10:20;11.60;99.90
19483;DHT22;9882;51.166;6.992;2024-01-30T14:12:49;11.60;99.90
19483;DHT22;9882;51.166;6.992;2024-01-30T14:15:17;11.60;99.90
19483;DHT22;9882;51.166;6.992;2024-01-30T14:17:50;11.70;99.90
19483;DHT22;9882;51.166;6.992;2024-01-30T14:20:19;11.60;99.90
19483;DHT22;9882;51.166;6.992;2024-01-30T14:22:47;11.60;99.90
19483;DHT22;9882;51.166;6.992;2024-01-30T14:25:16;11.60;99.90
19483;DHT22;9882;51.166;6.992;2024-01-30T14:27:44;11.60;99.90
19483;DHT22;9882;51.166;6.992;2024-01-30T14:30:13;11.70;99.90
19483;DHT22;9882;51.166;6.992;2024-01-30T14:32:41;11.60;99.90
19483;DHT22;9882;51.166;6.992;2024-01-30T14:35:13;11.60;99.90
19483;DHT22;9882;51.166;6.992;2024-01-30T14:37:42;11.60;99.90
19483;DHT22;9882;51.166;6.992;2024-01-30T14:40:10;11.60;99.90
19483;DHT22;9882;51.166;6.992;2024-01-30T14:42:39;11.60;99.90
19483;DHT22;9882;51.166;6.992;2024-01-30T14:45:09;11.50;99.90
19483;DHT22;9882;51.166;6.992;2024-01-30T14:47:38;11.60;99.90
19483;DHT22;9882;51.166;6.992;2024-01-30T14:50:08;11.60;99.90
19483;DHT22;9882;51.166;6.992;2024-01-30T14:52:38;11.60;99.90
19483;DHT22;9882;51.166;6.992;2024-01-30T14:55:07;11.60;99.90
19483;DHT22;9882;51.166;6.992;2024-01-30T14:57:36;11.60;99.90
19483;DHT22;9882;51.166;6.992;2024-01-30T15:00:06;11.50;99.90
19483;DHT22;9882;51.166;6.992;2024-01-30T15:02:36;11.60;99.90
19483;DHT22;9882;51.166;6.992;2024-01-30T15:05:04;11.60;99.90
19483;DHT22;9882;51.166;6.992;2024-01-30T15:07:33;11.50;99.90
19483;DHT22;9882;51.166;6.992;2024-01-30T15:10:04;11.50;99.90
19483;DHT22;9882;51.166;6.992;2024-01-30T15:12:32;11.60;99.90
19483;DHT22;9882;51.166;6.992;2024-01-30T15:15:01;11.60;99.90
19483;DHT22;9882;51.166;6.992;2024-01-30T15:17:30;11.60;99.90
19483;DHT22;9882;51.166;6.992;2024-01-30T15:19:58;11.50;99.90
19483;DHT22;9882;51.166;6.992;2024-01-30T15:22:27;11.50;99.90
19483;DHT22;9882;51.166;6.992;2024-01-30T15:24:56;11.50;99.90
19483;DHT22;9882;51.166;6.992;2024-01-30T15:27:25;11.50;99.90
19483;DHT22;9882;51.166;6.992;2024-01-30T15:29:54;11.40;99.90
19483;DHT22;9882;51.166;6.992;2024-01-30T15:32:23;11.50;99.90
19483;DHT22;9882;51.166;6.992;2024-01-30T15:34:52;11.40;99.90
19483;DHT22;9882;51.166;6.992;2024-01-30T15:37:22;11.40;99.90
19483;DHT22;9882;51.166;6.992;2024-01-30T15:39:50;11.40;99.90
19483;DHT22;9882;51.166;6.992;2024-01-30T15:42:19;11.40;99.90
19483;DHT22;9882;51.166;6.992;2024-01-30T15:44:48;11.30;99.90
19483;DHT22;9882;51.166;6.992;2024-01-30T15:47:17;11.40;99.90
19483;DHT22;9882;51.166;6.992;2024-01-30T15:49:45;11.40;99.90
19483;DHT22;9882;51.166;6.992;2024-01-30T15:52:14;11.30;99.90
19483;DHT22;9882;51.166;6.992;2024-01-30T15:54:45;11.20;99.90
19483;DHT22;9882;51.166;6.992;2024-01-30T15:57:14;11.10;99.90
19483;DHT22;9882;51.166;6.992;2024-01-30T15:59:42;11.10;99.90
19483;DHT22;9882;51.166;6.992;2024-01-30T16:02:12;11.00;99.90
19483;DHT22;9882;51.166;6.992;2024-01-30T16:04:41;11.00;99.90
19483;DHT22;9882;51.166;6.992;2024-01-30T16:07:10;11.00;99.90
19483;DHT22;9882;51.166;6.992;2024-01-30T16:09:38;10.90;99.90
19483;DHT22;9882;51.166;6.992;2024-01-30T16:12:13;10.90;99.90
19483;DHT22;9882;51.166;6.992;2024-01-30T16:14:41;11.00;99.90